sensor_id;sensor_type;location;lat;lon;timestamp;pressure;altitude;pressure_sealevel;temperature;humidity
16431;BME280;8325;49.284;7.238;2022-12-29T05:01:12;97973.88;;;10.02;84.47
16431;BME280;8325;49.284;7.238;2022-12-29T05:05:24;97976.66;;;10.00;84.41
16431;BME280;8325;49.284;7.238;2022-12-29T05:09:36;97991.69;;;9.98;84.67
16431;BME280;8325;49.284;7.238;2022-12-29T05:13:47;97975.25;;;9.98;84.07
16431;BME280;8325;49.284;7.238;2022-12-29T05:18:01;97976.22;;;9.97;83.54
16431;BME280;8325;49.284;7.238;2022-12-29T05:22:13;97984.47;;;10.00;82.97
16431;BME280;8325;49.284;7.238;2022-12-29T05:26:27;97979.97;;;10.09;81.67
16431;BME280;8325;49.284;7.238;2022-12-29T05:30:50;97960.34;;;10.13;81.25
16431;BME280;8325;49.284;7.238;2022-12-29T05:35:03;97953.94;;;10.15;80.11
16431;BME280;8325;49.284;7.238;2022-12-29T05:39:17;97968.03;;;10.21;79.71
16431;BME280;8325;49.284;7.238;2022-12-29T05:43:34;97955.63;;;10.23;79.76
16431;BME280;8325;49.284;7.238;2022-12-29T05:47:57;97970.47;;;10.23;79.92
16431;BME280;8325;49.284;7.238;2022-12-29T05:52:33;97956.72;;;10.29;78.88
16431;BME280;8325;49.284;7.238;2022-12-29T05:56:45;97975.41;;;10.32;78.98
16431;BME280;8325;49.284;7.238;2022-12-29T06:00:57;97966.59;;;10.33;78.30
16431;BME280;8325;49.284;7.238;2022-12-29T06:05:10;97966.22;;;10.36;78.11
16431;BME280;8325;49.284;7.238;2022-12-29T06:09:23;97947.75;;;10.38;78.22
16431;BME280;8325;49.284;7.238;2022-12-29T06:13:38;97949.56;;;10.38;77.95
16431;BME280;8325;49.284;7.238;2022-12-29T06:17:50;97962.84;;;10.43;77.54
16431;BME280;8325;49.284;7.238;2022-12-29T06:22:02;97952.56;;;10.34;77.77
16431;BME280;8325;49.284;7.238;2022-12-29T06:26:17;97953.41;;;10.42;77.85
16431;BME280;8325;49.284;7.238;2022-12-29T06:30:32;97978.94;;;10.46;77.39
16431;BME280;8325;49.284;7.238;2022-12-29T06:34:45;97976.41;;;10.53;77.24
16431;BME280;8325;49.284;7.238;2022-12-29T06:38:57;97979.59;;;10.48;76.64
16431;BME280;8325;49.284;7.238;2022-12-29T06:43:08;97972.38;;;10.50;76.68
16431;BME280;8325;49.284;7.238;2022-12-29T06:47:39;97957.13;;;10.54;76.70
16431;BME280;8325;49.284;7.238;2022-12-29T06:51:50;97982.69;;;10.58;76.85
16431;BME280;8325;49.284;7.238;2022-12-29T06:56:02;97974.25;;;10.56;77.26
16431;BME280;8325;49.284;7.238;2022-12-29T07:00:14;97991.50;;;10.57;77.42
16431;BME280;8325;49.284;7.238;2022-12-29T07:04:32;97985.22;;;10.52;77.42
16431;BME280;8325;49.284;7.238;2022-12-29T07:08:44;97987.03;;;10.51;77.64
16431;BME280;8325;49.284;7.238;2022-12-29T07:12:56;98003.78;;;10.57;76.58
16431;BME280;8325;49.284;7.238;2022-12-29T07:17:07;98004.16;;;10.54;77.99
16431;BME280;8325;49.284;7.238;2022-12-29T07:21:19;97996.16;;;10.62;76.75
16431;BME280;8325;49.284;7.238;2022-12-29T07:25:30;98015.38;;;10.54;77.61
16431;BME280;8325;49.284;7.238;2022-12-29T07:29:42;98014.66;;;10.60;77.27
16431;BME280;8325;49.284;7.238;2022-12-29T07:33:54;98023.66;;;10.58;77.56
16431;BME280;8325;49.284;7.238;2022-12-29T07:38:05;98032.66;;;10.55;81.97
16431;BME280;8325;49.284;7.238;2022-12-29T07:42:17;98029.22;;;10.33;84.19
16431;BME280;8325;49.284;7.238;2022-12-29T07:46:34;98028.69;;;10.23;83.58
16431;BME280;8325;49.284;7.238;2022-12-29T07:51:06;98037.63;;;10.29;82.43
16431;BME280;8325;49.284;7.238;2022-12-29T07:55:17;98050.13;;;10.33;82.59
16431;BME280;8325;49.284;7.238;2022-12-29T07:59:29;98050.75;;;10.35;82.12
16431;BME280;8325;49.284;7.238;2022-12-29T08:03:41;98056.16;;;10.34;82.09
16431;BME280;8325;49.284;7.238;2022-12-29T08:07:53;98068.66;;;10.39;83.70
16431;BME280;8325;49.284;7.238;2022-12-29T08:12:04;98090.09;;;10.34;86.37
16431;BME280;8325;49.284;7.238;2022-12-29T08:16:16;98079.47;;;10.21;88.60
16431;BME280;8325;49.284;7.238;2022-12-29T08:20:28;98089.19;;;10.12;89.00
16431;BME280;8325;49.284;7.238;2022-12-29T08:24:40;98090.00;;;10.12;89.12
16431;BME280;8325;49.284;7.238;2022-12-29T08:28:55;98095.78;;;10.08;89.15
16431;BME280;8325;49.284;7.238;2022-12-29T08:33:07;98083.09;;;10.05;89.54
16431;BME280;8325;49.284;7.238;2022-12-29T08:37:18;98100.44;;;10.12;87.79
16431;BME280;8325;49.284;7.238;2022-12-29T08:41:30;98096.78;;;10.07;89.56
16431;BME280;8325;49.284;7.238;2022-12-29T08:45:41;98115.66;;;10.09;89.35
16431;BME280;8325;49.284;7.238;2022-12-29T08:49:56;98117.28;;;10.10;89.62
16431;BME280;8325;49.284;7.238;2022-12-29T08:54:08;98112.06;;;10.10;89.69
16431;BME280;8325;49.284;7.238;2022-12-29T08:58:19;98112.59;;;10.20;89.17
16431;BME280;8325;49.284;7.238;2022-12-29T09:02:32;98112.41;;;10.36;88.32
16431;BME280;8325;49.284;7.238;2022-12-29T09:06:45;98118.91;;;10.41;87.98
16431;BME280;8325;49.284;7.238;2022-12-29T09:11:06;98119.34;;;10.44;87.65
16431;BME280;8325;49.284;7.238;2022-12-29T09:15:18;98120.78;;;10.47;87.42
16431;BME280;8325;49.284;7.238;2022-12-29T09:19:30;98124.69;;;10.57;86.39
16431;BME280;8325;49.284;7.238;2022-12-29T09:23:41;98126.84;;;10.69;86.93
16431;BME280;8325;49.284;7.238;2022-12-29T09:27:53;98133.69;;;10.70;86.47
16431;BME280;8325;49.284;7.238;2022-12-29T09:32:05;98117.56;;;10.66;87.06
16431;BME280;8325;49.284;7.238;2022-12-29T09:36:18;98134.03;;;10.67;87.12
16431;BME280;8325;49.284;7.238;2022-12-29T09:40:32;98128.38;;;10.63;87.11
16431;BME280;8325;49.284;7.238;2022-12-29T09:45:15;98129.63;;;10.67;86.63
16431;BME280;8325;49.284;7.238;2022-12-29T09:49:44;98121.16;;;10.65;86.67
16431;BME280;8325;49.284;7.238;2022-12-29T09:54:16;98141.63;;;10.83;84.89
16431;BME280;8325;49.284;7.238;2022-12-29T10:03:27;98170.03;;;10.71;85.82
16431;BME280;8325;49.284;7.238;2022-12-29T10:07:59;98152.00;;;10.55;87.66
16431;BME280;8325;49.284;7.238;2022-12-29T10:12:52;98190.00;;;10.43;88.78
16431;BME280;8325;49.284;7.238;2022-12-29T10:17:28;98184.66;;;10.06;88.72
16431;BME280;8325;49.284;7.238;2022-12-29T10:22:03;98196.81;;;9.99;90.50
16431;BME280;8325;49.284;7.238;2022-12-29T10:26:19;98187.00;;;10.01;91.50
16431;BME280;8325;49.284;7.238;2022-12-29T10:30:33;98170.72;;;9.99;92.81
16431;BME280;8325;49.284;7.238;2022-12-29T10:34:51;98160.22;;;10.07;92.96
16431;BME280;8325;49.284;7.238;2022-12-29T10:39:13;98151.09;;;10.03;92.72
16431;BME280;8325;49.284;7.238;2022-12-29T10:43:30;98153.91;;;10.02;92.82
16431;BME280;8325;49.284;7.238;2022-12-29T10:48:03;98166.22;;;10.08;93.23
16431;BME280;8325;49.284;7.238;2022-12-29T10:52:19;98161.66;;;10.10;92.04
16431;BME280;8325;49.284;7.238;2022-12-29T11:00:55;98153.28;;;10.29;90.69
16431;BME280;8325;49.284;7.238;2022-12-29T11:05:22;98158.06;;;10.41;90.55
16431;BME280;8325;49.284;7.238;2022-12-29T11:09:36;98170.38;;;10.47;89.23
16431;BME280;8325;49.284;7.238;2022-12-29T11:14:02;98163.69;;;10.59;87.29
16431;BME280;8325;49.284;7.238;2022-12-29T11:18:37;98165.03;;;10.55;86.17
16431;BME280;8325;49.284;7.238;2022-12-29T11:22:48;98159.81;;;10.55;86.19
16431;BME280;8325;49.284;7.238;2022-12-29T11:27:20;98170.63;;;10.67;85.52
16431;BME280;8325;49.284;7.238;2022-12-29T11:31:45;98173.88;;;10.69;85.48
16431;BME280;8325;49.284;7.238;2022-12-29T11:35:59;98173.50;;;10.72;84.39
16431;BME280;8325;49.284;7.238;2022-12-29T11:40:18;98177.28;;;10.69;84.56
16431;BME280;8325;49.284;7.238;2022-12-29T11:44:36;98174.28;;;10.72;84.84
16431;BME280;8325;49.284;7.238;2022-12-29T11:48:49;98184.13;;;10.55;85.22
16431;BME280;8325;49.284;7.238;2022-12-29T11:53:26;98189.78;;;10.59;85.91
16431;BME280;8325;49.284;7.238;2022-12-29T11:57:41;98191.16;;;10.40;88.79
16431;BME280;8325;49.284;7.238;2022-12-29T12:01:54;98202.81;;;10.38;88.25
16431;BME280;8325;49.284;7.238;2022-12-29T12:06:12;98194.84;;;10.16;89.84
16431;BME280;8325;49.284;7.238;2022-12-29T12:10:32;98185.38;;;10.00;92.03
16431;BME280;8325;49.284;7.238;2022-12-29T12:14:55;98178.09;;;9.96;90.06
16431;BME280;8325;49.284;7.238;2022-12-29T12:24:10;98181.75;;;9.72;92.01
16431;BME280;8325;49.284;7.238;2022-12-29T12:42:30;98170.94;;;9.60;92.49
16431;BME280;8325;49.284;7.238;2022-12-29T12:47:06;98164.16;;;9.51;91.96
16431;BME280;8325;49.284;7.238;2022-12-29T12:56:01;98161.66;;;9.42;92.47
16431;BME280;8325;49.284;7.238;2022-12-29T13:00:17;98156.78;;;9.39;92.93
16431;BME280;8325;49.284;7.238;2022-12-29T13:09:41;98155.50;;;9.35;94.54
16431;BME280;8325;49.284;7.238;2022-12-29T13:14:18;98161.88;;;9.33;95.06
16431;BME280;8325;49.284;7.238;2022-12-29T13:27:45;98158.66;;;9.31;95.54
16431;BME280;8325;49.284;7.238;2022-12-29T13:32:21;98169.06;;;9.31;95.18
16431;BME280;8325;49.284;7.238;2022-12-29T13:36:40;98172.84;;;9.28;95.56
16431;BME280;8325;49.284;7.238;2022-12-29T13:41:14;98161.16;;;9.24;95.87
16431;BME280;8325;49.284;7.238;2022-12-29T13:45:29;98160.03;;;9.18;95.66
16431;BME280;8325;49.284;7.238;2022-12-29T13:49:43;98151.22;;;9.19;96.13
16431;BME280;8325;49.284;7.238;2022-12-29T13:54:04;98153.69;;;9.21;96.45
16431;BME280;8325;49.284;7.238;2022-12-29T13:58:31;98161.31;;;9.22;95.84
16431;BME280;8325;49.284;7.238;2022-12-29T14:07:14;98181.81;;;9.26;93.93
16431;BME280;8325;49.284;7.238;2022-12-29T14:11:32;98171.72;;;9.22;92.82
16431;BME280;8325;49.284;7.238;2022-12-29T14:15:52;98186.25;;;9.17;92.68
16431;BME280;8325;49.284;7.238;2022-12-29T14:20:17;98182.34;;;9.21;92.09
16431;BME280;8325;49.284;7.238;2022-12-29T14:28:48;98185.72;;;8.98;92.93
16431;BME280;8325;49.284;7.238;2022-12-29T14:33:02;98186.06;;;8.95;92.27
16431;BME280;8325;49.284;7.238;2022-12-29T14:37:33;98183.19;;;8.90;92.70
16431;BME280;8325;49.284;7.238;2022-12-29T14:41:45;98190.88;;;8.84;92.53
16431;BME280;8325;49.284;7.238;2022-12-29T14:46:01;98190.47;;;8.95;91.50
16431;BME280;8325;49.284;7.238;2022-12-29T14:54:56;98191.00;;;8.90;91.08
16431;BME280;8325;49.284;7.238;2022-12-29T14:59:10;98190.34;;;8.88;90.98
16431;BME280;8325;49.284;7.238;2022-12-29T15:03:32;98196.59;;;8.79;91.65
16431;BME280;8325;49.284;7.238;2022-12-29T15:07:44;98196.59;;;8.79;91.43
16431;BME280;8325;49.284;7.238;2022-12-29T15:12:01;98199.84;;;8.81;91.29
16431;BME280;8325;49.284;7.238;2022-12-29T15:16:30;98208.47;;;8.82;91.96
16431;BME280;8325;49.284;7.238;2022-12-29T15:20:43;98215.13;;;8.84;91.57
16431;BME280;8325;49.284;7.238;2022-12-29T15:24:55;98209.59;;;8.87;91.71
16431;BME280;8325;49.284;7.238;2022-12-29T15:29:32;98219.19;;;8.87;92.49
16431;BME280;8325;49.284;7.238;2022-12-29T15:33:47;98217.09;;;8.82;93.11
16431;BME280;8325;49.284;7.238;2022-12-29T15:38:00;98220.34;;;8.84;93.13
16431;BME280;8325;49.284;7.238;2022-12-29T15:46:38;98227.50;;;8.82;93.67
16431;BME280;8325;49.284;7.238;2022-12-29T15:50:50;98243.94;;;8.83;93.86
16431;BME280;8325;49.284;7.238;2022-12-29T15:55:02;98230.75;;;8.84;93.73
16431;BME280;8325;49.284;7.238;2022-12-29T16:03:36;98228.16;;;8.84;93.47
16431;BME280;8325;49.284;7.238;2022-12-29T16:07:56;98237.44;;;8.79;93.84
16431;BME280;8325;49.284;7.238;2022-12-29T16:12:18;98248.69;;;8.79;94.34
16431;BME280;8325;49.284;7.238;2022-12-29T16:16:35;98250.28;;;8.80;94.32
16431;BME280;8325;49.284;7.238;2022-12-29T16:20:47;98263.97;;;8.82;94.68
16431;BME280;8325;49.284;7.238;2022-12-29T16:25:22;98270.78;;;8.83;94.59
16431;BME280;8325;49.284;7.238;2022-12-29T16:29:35;98278.78;;;8.82;95.26
16431;BME280;8325;49.284;7.238;2022-12-29T16:33:53;98288.06;;;8.84;94.42
16431;BME280;8325;49.284;7.238;2022-12-29T16:38:16;98268.84;;;8.77;94.73
16431;BME280;8325;49.284;7.238;2022-12-29T16:47:25;98283.53;;;8.78;94.17
16431;BME280;8325;49.284;7.238;2022-12-29T16:51:37;98288.41;;;8.81;93.88
16431;BME280;8325;49.284;7.238;2022-12-29T16:55:50;98280.41;;;8.83;93.77
16431;BME280;8325;49.284;7.238;2022-12-29T17:00:06;98293.28;;;8.76;93.59
16431;BME280;8325;49.284;7.238;2022-12-29T17:04:18;98288.72;;;8.78;92.67
16431;BME280;8325;49.284;7.238;2022-12-29T17:08:39;98267.72;;;8.80;92.89
16431;BME280;8325;49.284;7.238;2022-12-29T17:12:51;98268.38;;;8.82;91.96
16431;BME280;8325;49.284;7.238;2022-12-29T17:17:05;98277.91;;;8.89;92.17
16431;BME280;8325;49.284;7.238;2022-12-29T17:21:21;98269.50;;;8.79;93.02
16431;BME280;8325;49.284;7.238;2022-12-29T17:25:34;98282.22;;;8.74;93.15
16431;BME280;8325;49.284;7.238;2022-12-29T17:29:47;98290.69;;;8.68;94.13
16431;BME280;8325;49.284;7.238;2022-12-29T17:33:58;98281.59;;;8.64;95.43
16431;BME280;8325;49.284;7.238;2022-12-29T17:38:20;98294.75;;;8.70;96.13
16431;BME280;8325;49.284;7.238;2022-12-29T17:42:35;98291.22;;;8.55;97.56
16431;BME280;8325;49.284;7.238;2022-12-29T17:46:48;98299.38;;;8.52;97.81
16431;BME280;8325;49.284;7.238;2022-12-29T17:51:00;98307.38;;;8.50;98.71
16431;BME280;8325;49.284;7.238;2022-12-29T17:55:16;98311.44;;;8.53;98.92
16431;BME280;8325;49.284;7.238;2022-12-29T17:59:28;98303.94;;;8.50;99.22
16431;BME280;8325;49.284;7.238;2022-12-29T18:03:39;98307.22;;;8.44;100.00
16431;BME280;8325;49.284;7.238;2022-12-29T18:07:53;98309.16;;;8.42;100.00
16431;BME280;8325;49.284;7.238;2022-12-29T18:12:06;98307.00;;;8.37;100.00
16431;BME280;8325;49.284;7.238;2022-12-29T18:16:24;98320.06;;;8.45;100.00
16431;BME280;8325;49.284;7.238;2022-12-29T18:20:36;98313.56;;;8.41;100.00
16431;BME280;8325;49.284;7.238;2022-12-29T18:24:48;98323.63;;;8.36;100.00
16431;BME280;8325;49.284;7.238;2022-12-29T18:29:00;98328.16;;;8.34;100.00
16431;BME280;8325;49.284;7.238;2022-12-29T18:33:17;98330.47;;;8.29;100.00
16431;BME280;8325;49.284;7.238;2022-12-29T18:37:33;98330.13;;;8.32;100.00
16431;BME280;8325;49.284;7.238;2022-12-29T18:41:45;98321.34;;;8.33;99.53
16431;BME280;8325;49.284;7.238;2022-12-29T18:45:56;98326.72;;;8.40;99.04
16431;BME280;8325;49.284;7.238;2022-12-29T18:50:08;98331.75;;;8.33;98.86
16431;BME280;8325;49.284;7.238;2022-12-29T18:54:30;98323.00;;;8.26;99.35
16431;BME280;8325;49.284;7.238;2022-12-29T18:58:41;98317.78;;;8.26;99.31
16431;BME280;8325;49.284;7.238;2022-12-29T19:02:53;98330.78;;;8.26;99.29
16431;BME280;8325;49.284;7.238;2022-12-29T19:07:04;98334.34;;;8.25;99.14
16431;BME280;8325;49.284;7.238;2022-12-29T19:11:16;98336.66;;;8.20;99.75
16431;BME280;8325;49.284;7.238;2022-12-29T19:15:30;98333.88;;;8.21;99.16
16431;BME280;8325;49.284;7.238;2022-12-29T19:19:42;98339.25;;;8.20;99.42
16431;BME280;8325;49.284;7.238;2022-12-29T19:23:54;98325.91;;;8.23;98.99
16431;BME280;8325;49.284;7.238;2022-12-29T19:28:06;98335.00;;;8.19;99.19
16431;BME280;8325;49.284;7.238;2022-12-29T19:32:23;98343.16;;;8.16;99.02
16431;BME280;8325;49.284;7.238;2022-12-29T19:36:34;98338.13;;;8.14;98.65
16431;BME280;8325;49.284;7.238;2022-12-29T19:40:48;98335.00;;;8.19;98.49
16431;BME280;8325;49.284;7.238;2022-12-29T19:45:04;98352.28;;;8.20;98.38
16431;BME280;8325;49.284;7.238;2022-12-29T19:49:16;98347.38;;;8.17;98.39
16431;BME280;8325;49.284;7.238;2022-12-29T19:53:27;98358.13;;;8.14;98.05
16431;BME280;8325;49.284;7.238;2022-12-29T19:57:39;98366.06;;;8.12;97.97
16431;BME280;8325;49.284;7.238;2022-12-29T20:01:50;98374.06;;;8.11;98.12
16431;BME280;8325;49.284;7.238;2022-12-29T20:06:03;98391.28;;;8.12;97.70
16431;BME280;8325;49.284;7.238;2022-12-29T20:10:15;98398.28;;;8.11;97.01
16431;BME280;8325;49.284;7.238;2022-12-29T20:14:26;98390.31;;;8.04;97.03
16431;BME280;8325;49.284;7.238;2022-12-29T20:18:38;98408.03;;;8.09;97.07
16431;BME280;8325;49.284;7.238;2022-12-29T20:22:49;98406.22;;;8.10;96.78
16431;BME280;8325;49.284;7.238;2022-12-29T20:27:02;98413.09;;;8.11;96.60
16431;BME280;8325;49.284;7.238;2022-12-29T20:31:24;98409.47;;;8.03;96.22
16431;BME280;8325;49.284;7.238;2022-12-29T20:35:37;98405.41;;;8.09;96.05
16431;BME280;8325;49.284;7.238;2022-12-29T20:39:49;98405.09;;;8.12;95.14
16431;BME280;8325;49.284;7.238;2022-12-29T20:44:00;98420.88;;;8.11;95.34
16431;BME280;8325;49.284;7.238;2022-12-29T20:48:12;98429.00;;;7.99;95.35
16431;BME280;8325;49.284;7.238;2022-12-29T20:52:24;98436.13;;;7.97;95.64
16431;BME280;8325;49.284;7.238;2022-12-29T20:56:35;98443.78;;;7.99;95.56
16431;BME280;8325;49.284;7.238;2022-12-29T21:00:47;98428.19;;;7.99;95.20
16431;BME280;8325;49.284;7.238;2022-12-29T21:04:58;98433.56;;;8.05;94.72
16431;BME280;8325;49.284;7.238;2022-12-29T21:09:30;98433.72;;;8.04;94.46
16431;BME280;8325;49.284;7.238;2022-12-29T21:13:41;98433.88;;;8.02;94.52
16431;BME280;8325;49.284;7.238;2022-12-29T21:17:53;98433.06;;;8.02;93.85
16431;BME280;8325;49.284;7.238;2022-12-29T21:22:04;98432.25;;;8.01;94.48
16431;BME280;8325;49.284;7.238;2022-12-29T21:26:19;98439.09;;;8.11;94.55
16431;BME280;8325;49.284;7.238;2022-12-29T21:30:31;98441.69;;;8.11;93.89
16431;BME280;8325;49.284;7.238;2022-12-29T21:34:43;98446.25;;;8.08;93.70
16431;BME280;8325;49.284;7.238;2022-12-29T21:38:55;98450.63;;;8.08;93.26
16431;BME280;8325;49.284;7.238;2022-12-29T21:43:08;98453.22;;;8.08;93.30
16431;BME280;8325;49.284;7.238;2022-12-29T21:47:20;98453.72;;;8.12;92.06
16431;BME280;8325;49.284;7.238;2022-12-29T21:51:32;98465.88;;;8.03;91.93
16431;BME280;8325;49.284;7.238;2022-12-29T21:56:09;98482.50;;;8.10;91.42
16431;BME280;8325;49.284;7.238;2022-12-29T22:00:21;98497.94;;;8.12;90.65
16431;BME280;8325;49.284;7.238;2022-12-29T22:04:51;98497.91;;;8.03;91.13
16431;BME280;8325;49.284;7.238;2022-12-29T22:09:21;98502.00;;;8.06;90.21
16431;BME280;8325;49.284;7.238;2022-12-29T22:13:54;98508.31;;;8.03;89.99
16431;BME280;8325;49.284;7.238;2022-12-29T22:18:06;98516.44;;;8.00;90.30
16431;BME280;8325;49.284;7.238;2022-12-29T22:22:18;98516.44;;;8.00;89.98
16431;BME280;8325;49.284;7.238;2022-12-29T22:26:29;98521.00;;;7.98;89.99
